Time;durP1;ratioP1;P1;durP2;ratioP2;P2;SDS_P1;SDS_P2;PMS_P1;PMS_P2;Temp;Humidity;BMP_temperature;BMP_pressure;BME280_temperature;BME280_humidity;BME280_pressure;Samples;Min_cycle;Max_cycle;Signal;HPM_P1;HPM_P2
2022/07/15 00:00:14;;;;;;;0.57;0.57;;;9.90;99.90;;;;;;5031820;28;20717;-68
2022/07/15 00:02:40;;;;;;;0.60;0.60;;;9.90;99.90;;;;;;5014223;28;20281;-67
2022/07/15 00:05:07;;;;;;;0.60;0.60;;;9.90;99.90;;;;;;5031914;28;20281;-68
2022/07/15 00:07:34;;;;;;;0.60;0.60;;;9.80;99.90;;;;;;5030059;28;20214;-68
2022/07/15 00:10:15;;;;;;;0.60;0.60;;;9.70;99.90;;;;;;5047889;28;20204;-67
2022/07/15 00:12:45;;;;;;;0.60;0.60;;;9.60;99.90;;;;;;5071981;28;20191;-67
2022/07/15 00:15:12;;;;;;;0.60;0.60;;;9.60;99.90;;;;;;5053429;28;20192;-67
2022/07/15 00:17:38;;;;;;;0.90;0.90;;;9.70;99.90;;;;;;5062615;28;20202;-67
2022/07/15 00:20:05;;;;;;;0.40;0.40;;;9.60;99.90;;;;;;5051544;28;20201;-67
2022/07/15 00:22:31;;;;;;;0.52;0.52;;;9.60;99.90;;;;;;5051161;28;20193;-68
2022/07/15 00:24:58;;;;;;;0.60;0.60;;;9.60;99.90;;;;;;5050835;28;20245;-68
2022/07/15 00:27:24;;;;;;;0.70;0.70;;;9.60;99.90;;;;;;5051405;28;20573;-68
2022/07/15 00:29:50;;;;;;;0.50;0.50;;;9.60;99.90;;;;;;5033666;28;20203;-67
2022/07/15 00:32:17;;;;;;;0.60;0.60;;;9.60;99.90;;;;;;5051430;28;20280;-67
2022/07/15 00:34:42;;;;;;;0.50;0.50;;;9.70;99.90;;;;;;5051453;28;20182;-68
2022/07/15 00:37:08;;;;;;;1.10;1.02;;;9.80;99.90;;;;;;5051285;28;20285;-68
2022/07/15 00:39:34;;;;;;;0.70;0.70;;;9.80;99.90;;;;;;5051303;28;20305;-67
2022/07/15 00:42:00;;;;;;;0.60;0.60;;;9.90;99.90;;;;;;5051463;28;20255;-67
2022/07/15 00:44:26;;;;;;;0.60;0.60;;;10.00;99.90;;;;;;5051225;28;20193;-68
2022/07/15 00:46:55;;;;;;;0.52;0.52;;;10.00;99.90;;;;;;5051037;28;20699;-67
2022/07/15 00:49:21;;;;;;;0.60;0.60;;;10.00;99.90;;;;;;5032928;28;20246;-67
2022/07/15 00:51:51;;;;;;;0.60;0.60;;;10.00;99.90;;;;;;5051074;28;20205;-67
2022/07/15 00:54:23;;;;;;;0.60;0.60;;;10.00;99.90;;;;;;5051104;28;20189;-68
2022/07/15 00:56:54;;;;;;;0.52;0.52;;;9.90;99.90;;;;;;5051316;28;20327;-67
2022/07/15 00:59:23;;;;;;;0.70;0.70;;;9.90;99.90;;;;;;5050715;28;20197;-67
2022/07/15 01:01:53;;;;;;;0.60;0.60;;;9.80;99.90;;;;;;5051198;28;20205;-68
2022/07/15 01:04:21;;;;;;;0.85;0.60;;;9.80;99.90;;;;;;5050933;28;20212;-68
2022/07/15 01:06:47;;;;;;;0.60;0.60;;;9.80;99.90;;;;;;5045197;28;20703;-68
2022/07/15 01:09:12;;;;;;;0.60;0.60;;;9.90;99.90;;;;;;5073320;28;20197;-68
2022/07/15 01:11:38;;;;;;;0.63;0.63;;;9.90;99.90;;;;;;5074122;28;20294;-68
2022/07/15 01:14:04;;;;;;;0.70;0.70;;;9.80;99.90;;;;;;5074899;28;20188;-68
2022/07/15 01:16:30;;;;;;;0.70;0.70;;;9.90;99.90;;;;;;5074631;28;20200;-67
2022/07/15 01:18:57;;;;;;;0.60;0.60;;;9.90;99.90;;;;;;5054956;28;20597;-67
2022/07/15 01:21:23;;;;;;;0.60;0.60;;;9.90;99.90;;;;;;5054544;28;20189;-68
2022/07/15 01:23:49;;;;;;;0.60;0.60;;;9.80;99.90;;;;;;5054429;28;20240;-68
2022/07/15 01:26:15;;;;;;;0.60;0.60;;;9.70;99.90;;;;;;5054340;28;20599;-67
2022/07/15 01:28:42;;;;;;;0.60;0.60;;;9.70;99.90;;;;;;5054249;28;20190;-67
2022/07/15 01:31:08;;;;;;;0.68;0.68;;;9.70;99.90;;;;;;5054596;28;20201;-67
2022/07/15 01:33:35;;;;;;;0.68;0.68;;;9.70;99.90;;;;;;5054530;28;20231;-67
2022/07/15 01:36:01;;;;;;;0.60;0.60;;;9.70;99.90;;;;;;5054263;28;20181;-67
2022/07/15 01:38:28;;;;;;;0.60;0.60;;;9.70;99.90;;;;;;5054179;28;20182;-68
2022/07/15 01:40:54;;;;;;;0.60;0.60;;;9.80;99.90;;;;;;5054165;28;20541;-68
2022/07/15 01:43:20;;;;;;;0.70;0.70;;;9.80;99.90;;;;;;5053871;28;20272;-67
2022/07/15 01:45:46;;;;;;;0.60;0.60;;;9.90;99.90;;;;;;5039086;28;20616;-67
2022/07/15 01:50:58;;;;;;;0.50;0.50;;;9.80;99.90;;;;;;5034084;28;20695;-67
2022/07/15 01:53:28;;;;;;;0.65;0.65;;;9.90;99.90;;;;;;5033766;28;20198;-68
2022/07/15 01:55:54;;;;;;;0.70;0.70;;;9.90;99.90;;;;;;5033615;28;20265;-67
2022/07/15 01:58:20;;;;;;;0.82;0.82;;;9.90;99.90;;;;;;5016061;28;20202;-68
2022/07/15 02:00:47;;;;;;;0.60;0.60;;;9.90;99.90;;;;;;5037465;28;20292;-69
2022/07/15 02:03:13;;;;;;;1.15;1.05;;;10.00;99.90;;;;;;5063229;28;20205;-67
2022/07/15 02:05:39;;;;;;;0.60;0.60;;;9.90;99.90;;;;;;5053381;28;20635;-67
2022/07/15 02:08:05;;;;;;;0.60;0.60;;;9.90;99.90;;;;;;5053751;28;20210;-68
2022/07/15 02:10:40;;;;;;;0.60;0.60;;;9.80;99.90;;;;;;5035710;28;20193;-67
2022/07/15 02:13:10;;;;;;;0.60;0.60;;;9.80;99.90;;;;;;5053741;28;20179;-68
2022/07/15 02:15:37;;;;;;;0.88;0.80;;;9.80;99.90;;;;;;5053440;28;20660;-67
2022/07/15 02:18:06;;;;;;;0.60;0.60;;;9.70;99.90;;;;;;5035633;28;20649;-67
2022/07/15 02:20:33;;;;;;;0.60;0.60;;;9.70;99.90;;;;;;5052930;28;20259;-68
2022/07/15 02:23:01;;;;;;;0.70;0.70;;;9.70;99.90;;;;;;5053094;28;20192;-67
2022/07/15 02:25:29;;;;;;;0.60;0.60;;;9.80;99.90;;;;;;5045746;28;20230;-68
2022/07/15 02:28:00;;;;;;;1.15;1.08;;;9.70;99.90;;;;;;5033121;28;20206;-67
2022/07/15 02:30:31;;;;;;;0.77;0.77;;;9.70;99.90;;;;;;5033134;28;20657;-68
2022/07/15 02:32:57;;;;;;;0.60;0.60;;;9.60;99.90;;;;;;5015433;28;20679;-67
2022/07/15 02:35:23;;;;;;;0.70;0.70;;;9.60;99.90;;;;;;5033020;28;20198;-67
2022/07/15 02:37:49;;;;;;;0.57;0.57;;;9.60;99.90;;;;;;5033395;28;20190;-67
2022/07/15 02:40:15;;;;;;;0.85;0.85;;;9.60;99.90;;;;;;5033833;28;20661;-67
2022/07/15 02:42:48;;;;;;;0.60;0.60;;;9.50;99.90;;;;;;5052877;28;20193;-68
2022/07/15 02:45:14;;;;;;;1.05;0.95;;;9.40;99.90;;;;;;5053614;28;20211;-67
2022/07/15 02:47:39;;;;;;;0.70;0.70;;;9.40;99.90;;;;;;5052365;28;20209;-67
2022/07/15 02:50:05;;;;;;;0.57;0.57;;;9.40;99.90;;;;;;5053423;28;20665;-67
2022/07/15 02:52:31;;;;;;;0.60;0.60;;;9.30;99.90;;;;;;5052825;28;20197;-67
2022/07/15 02:54:57;;;;;;;0.60;0.60;;;9.30;99.90;;;;;;5035065;28;20255;-67
2022/07/15 02:57:22;;;;;;;0.85;0.85;;;9.30;99.90;;;;;;5034875;28;20229;-67
2022/07/15 02:59:48;;;;;;;0.60;0.60;;;9.30;99.90;;;;;;5035927;28;20206;-67
2022/07/15 03:02:14;;;;;;;0.63;0.63;;;9.30;99.90;;;;;;5049392;28;20202;-67
2022/07/15 03:04:39;;;;;;;0.60;0.60;;;9.40;99.90;;;;;;5034614;28;20261;-67
2022/07/15 03:07:05;;;;;;;0.70;0.70;;;9.40;99.90;;;;;;5048294;28;20216;-68
2022/07/15 03:09:31;;;;;;;0.65;0.65;;;9.50;99.90;;;;;;5051957;28;20190;-68
2022/07/15 03:11:56;;;;;;;0.70;0.70;;;9.60;99.90;;;;;;5052609;28;20189;-67
2022/07/15 03:14:22;;;;;;;0.70;0.70;;;9.70;99.90;;;;;;5052232;28;20185;-67
2022/07/15 03:16:48;;;;;;;0.60;0.60;;;9.80;99.90;;;;;;5052507;28;20197;-68
2022/07/15 03:19:14;;;;;;;0.60;0.60;;;9.80;99.90;;;;;;5052521;28;20193;-68
2022/07/15 03:21:39;;;;;;;0.63;0.63;;;9.80;99.90;;;;;;5045420;28;20209;-68
2022/07/15 03:24:07;;;;;;;4.70;1.88;;;9.80;99.90;;;;;;5032554;28;20222;-68
2022/07/15 03:26:33;;;;;;;0.80;0.80;;;9.80;99.90;;;;;;5032290;28;20566;-67
2022/07/15 03:29:00;;;;;;;0.60;0.60;;;10.00;99.90;;;;;;5014561;28;20225;-67
2022/07/15 03:31:27;;;;;;;0.60;0.60;;;10.00;99.90;;;;;;5031648;28;20248;-67
2022/07/15 03:33:53;;;;;;;0.60;0.60;;;10.10;99.90;;;;;;5032130;28;20236;-67
2022/07/15 03:36:18;;;;;;;0.65;0.65;;;10.10;99.90;;;;;;5032124;28;20217;-67
2022/07/15 03:38:44;;;;;;;0.57;0.57;;;10.20;99.90;;;;;;5051219;28;20201;-67
2022/07/15 03:41:10;;;;;;;0.60;0.60;;;10.30;99.90;;;;;;5051928;28;20190;-72
2022/07/15 03:43:35;;;;;;;0.60;0.60;;;10.40;99.90;;;;;;5051797;28;20190;-67
2022/07/15 03:46:01;;;;;;;0.63;0.63;;;10.50;99.90;;;;;;5051993;28;20193;-68
2022/07/15 03:48:27;;;;;;;0.50;0.50;;;10.50;99.90;;;;;;5051103;28;20668;-68
2022/07/15 03:50:53;;;;;;;0.60;0.60;;;10.60;99.90;;;;;;5052395;28;20554;-67
2022/07/15 03:53:19;;;;;;;0.60;0.60;;;10.60;99.90;;;;;;5051543;28;20197;-67
2022/07/15 03:55:44;;;;;;;0.52;0.52;;;10.60;99.90;;;;;;5048023;28;20219;-68
2022/07/15 03:58:10;;;;;;;0.60;0.60;;;10.70;99.90;;;;;;5071741;28;20272;-68
2022/07/15 04:00:36;;;;;;;1.17;1.13;;;10.80;99.90;;;;;;5071417;28;20212;-68
2022/07/15 04:03:01;;;;;;;0.60;0.60;;;10.90;99.90;;;;;;5053714;28;20652;-67
2022/07/15 04:05:27;;;;;;;0.50;0.50;;;10.90;99.90;;;;;;5068806;28;20227;-68
2022/07/15 04:07:53;;;;;;;0.60;0.60;;;10.90;99.90;;;;;;5033806;28;20727;-68
2022/07/15 04:10:18;;;;;;;0.60;0.60;;;10.90;99.90;;;;;;5051352;28;20189;-67
2022/07/15 04:12:44;;;;;;;0.50;0.50;;;10.90;99.90;;;;;;5051735;28;20197;-68
2022/07/15 04:15:10;;;;;;;0.50;0.50;;;11.00;99.90;;;;;;5051559;28;20200;-68
2022/07/15 04:17:35;;;;;;;0.50;0.50;;;11.00;99.90;;;;;;5046986;28;20208;-67
2022/07/15 04:20:01;;;;;;;0.47;0.47;;;11.10;99.90;;;;;;5051809;28;20198;-67
2022/07/15 04:22:27;;;;;;;0.70;0.70;;;11.00;99.90;;;;;;5033364;28;20604;-68
2022/07/15 04:24:53;;;;;;;0.50;0.50;;;11.10;99.90;;;;;;5055339;28;20277;-67
2022/07/15 04:27:19;;;;;;;0.50;0.50;;;11.10;99.90;;;;;;5071492;28;20217;-67
2022/07/15 04:29:45;;;;;;;0.60;0.60;;;11.10;99.90;;;;;;5071529;28;20644;-67
2022/07/15 04:32:11;;;;;;;0.50;0.50;;;11.20;99.90;;;;;;5071363;28;20189;-67
2022/07/15 04:34:36;;;;;;;1.08;0.90;;;11.20;99.90;;;;;;5071094;28;20224;-67
2022/07/15 04:37:02;;;;;;;0.50;0.50;;;11.20;99.90;;;;;;5071425;28;20569;-68
2022/07/15 04:39:28;;;;;;;0.60;0.60;;;11.30;99.90;;;;;;5071305;28;20196;-67
2022/07/15 04:41:54;;;;;;;0.50;0.50;;;11.40;99.90;;;;;;5071432;28;20196;-68
2022/07/15 04:44:19;;;;;;;0.50;0.50;;;11.50;99.90;;;;;;5073510;28;20200;-67
2022/07/15 04:46:45;;;;;;;0.57;0.57;;;11.60;99.90;;;;;;5075400;28;20618;-67
2022/07/15 04:51:55;;;;;;;0.40;0.40;;;11.70;99.90;;;;;;5089102;28;20258;-67
2022/07/15 04:54:21;;;;;;;0.50;0.50;;;11.70;99.90;;;;;;5095277;28;20643;-67
2022/07/15 04:56:47;;;;;;;0.60;0.60;;;11.70;99.90;;;;;;5095530;28;20203;-68
2022/07/15 04:59:12;;;;;;;0.60;0.60;;;11.80;99.90;;;;;;5095213;28;20192;-67
2022/07/15 05:01:38;;;;;;;0.50;0.50;;;11.90;99.90;;;;;;5095493;28;20192;-67
2022/07/15 05:04:04;;;;;;;0.50;0.50;;;12.00;99.90;;;;;;5093928;28;20189;-67
2022/07/15 05:06:29;;;;;;;0.50;0.50;;;12.10;99.90;;;;;;5083471;28;20288;-68
2022/07/15 05:08:55;;;;;;;0.60;0.60;;;12.30;99.90;;;;;;5074352;28;20652;-67
2022/07/15 05:11:21;;;;;;;0.50;0.50;;;12.30;99.90;;;;;;5074714;28;20540;-68
2022/07/15 05:13:46;;;;;;;0.50;0.50;;;12.50;99.90;;;;;;5074573;28;20197;-67
2022/07/15 05:16:12;;;;;;;0.60;0.60;;;12.50;99.90;;;;;;5074874;28;20192;-67
2022/07/15 05:18:38;;;;;;;0.75;0.65;;;12.60;99.90;;;;;;5073319;28;20201;-67
2022/07/15 05:21:04;;;;;;;0.50;0.50;;;12.70;99.90;;;;;;5073416;28;20287;-67
2022/07/15 05:23:29;;;;;;;0.70;0.70;;;12.80;99.90;;;;;;5071920;28;20566;-67
2022/07/15 05:25:55;;;;;;;0.45;0.45;;;12.80;99.90;;;;;;5054677;28;20279;-67
2022/07/15 05:28:21;;;;;;;0.63;0.63;;;12.90;99.90;;;;;;5036576;28;20796;-67
2022/07/15 05:30:47;;;;;;;9.25;0.80;;;13.00;99.90;;;;;;5054590;28;20208;-68
2022/07/15 05:33:16;;;;;;;0.50;0.50;;;13.00;99.90;;;;;;5054292;28;20657;-67
2022/07/15 05:35:42;;;;;;;1.38;0.70;;;13.10;99.90;;;;;;5054355;28;20186;-67
2022/07/15 05:38:08;;;;;;;0.43;0.43;;;13.20;99.90;;;;;;5036521;28;20292;-67
2022/07/15 05:40:33;;;;;;;0.50;0.50;;;13.20;99.90;;;;;;5054066;28;20308;-67
2022/07/15 05:42:59;;;;;;;0.50;0.50;;;13.30;99.90;;;;;;5054377;28;20588;-67
2022/07/15 05:45:25;;;;;;;0.50;0.50;;;13.30;99.90;;;;;;5054071;28;20283;-67
2022/07/15 05:47:51;;;;;;;1.40;0.82;;;13.30;99.90;;;;;;5042656;28;20201;-67
2022/07/15 05:50:18;;;;;;;0.60;0.60;;;13.40;99.90;;;;;;5034444;28;20221;-67
2022/07/15 05:52:44;;;;;;;0.40;0.40;;;13.60;99.90;;;;;;5016207;28;20739;-67
2022/07/15 05:55:09;;;;;;;0.50;0.50;;;13.60;99.90;;;;;;5033271;28;20199;-67
2022/07/15 05:57:35;;;;;;;0.75;0.70;;;13.80;99.90;;;;;;5033914;28;20198;-67
2022/07/15 06:00:01;;;;;;;0.50;0.50;;;13.80;99.90;;;;;;5033894;28;20537;-69
2022/07/15 06:02:27;;;;;;;0.40;0.40;;;13.90;99.90;;;;;;5033736;28;20197;-68
2022/07/15 06:04:52;;;;;;;0.50;0.50;;;14.20;99.90;;;;;;5033989;28;20205;-68
2022/07/15 06:07:18;;;;;;;0.40;0.40;;;14.60;99.90;;;;;;5051209;28;20209;-68
2022/07/15 06:09:44;;;;;;;0.40;0.40;;;14.70;99.90;;;;;;5049492;28;20239;-68
2022/07/15 06:12:10;;;;;;;0.50;0.50;;;15.00;99.90;;;;;;5053896;28;20217;-69
2022/07/15 06:14:36;;;;;;;1.40;1.00;;;15.10;99.90;;;;;;5053876;28;20189;-68
2022/07/15 06:17:01;;;;;;;0.40;0.40;;;14.90;99.90;;;;;;5053893;28;20252;-68
2022/07/15 06:19:27;;;;;;;0.40;0.40;;;15.10;99.90;;;;;;5053365;28;20197;-68
2022/07/15 06:21:53;;;;;;;0.40;0.40;;;15.20;99.90;;;;;;5053706;28;20204;-68
2022/07/15 06:24:19;;;;;;;0.50;0.50;;;15.40;99.90;;;;;;5053420;28;20221;-69
2022/07/15 06:26:45;;;;;;;0.40;0.40;;;15.70;99.90;;;;;;5053117;28;20220;-68
2022/07/15 06:29:10;;;;;;;0.50;0.50;;;15.70;99.90;;;;;;5053774;28;20189;-69
2022/07/15 06:31:36;;;;;;;0.40;0.40;;;15.50;99.90;;;;;;5053233;28;21204;-68
2022/07/15 06:34:02;;;;;;;0.40;0.40;;;15.20;99.90;;;;;;5053383;28;20184;-68
2022/07/15 06:36:28;;;;;;;0.38;0.38;;;15.00;99.90;;;;;;5053358;28;20641;-68
2022/07/15 06:38:54;;;;;;;0.63;0.63;;;15.10;99.90;;;;;;5035485;28;20233;-68
2022/07/15 06:41:19;;;;;;;0.47;0.47;;;15.20;99.90;;;;;;5052758;28;20283;-69
2022/07/15 06:43:45;;;;;;;1.48;0.85;;;15.40;99.90;;;;;;5053030;28;20205;-68
2022/07/15 06:46:12;;;;;;;0.30;0.30;;;15.50;99.90;;;;;;5053048;28;20194;-68
2022/07/15 06:48:39;;;;;;;0.50;0.50;;;15.50;99.90;;;;;;5053041;28;20224;-68
2022/07/15 06:51:05;;;;;;;0.40;0.40;;;15.50;99.90;;;;;;5053557;28;20683;-68
2022/07/15 06:53:32;;;;;;;0.32;0.32;;;15.70;99.90;;;;;;5053013;28;20593;-68
2022/07/15 06:55:57;;;;;;;0.47;0.47;;;16.00;99.90;;;;;;5035119;28;20193;-68
2022/07/15 06:58:23;;;;;;;0.32;0.32;;;16.20;99.90;;;;;;5034997;28;20197;-69
2022/07/15 07:00:49;;;;;;;0.40;0.40;;;16.20;99.90;;;;;;5034945;28;20201;-69
2022/07/15 07:03:15;;;;;;;0.57;0.57;;;16.30;99.90;;;;;;5052631;28;20271;-68
2022/07/15 07:05:40;;;;;;;0.35;0.35;;;16.60;99.90;;;;;;5048059;28;20190;-69
2022/07/15 07:08:07;;;;;;;0.30;0.30;;;16.70;99.90;;;;;;5051221;28;20201;-69
2022/07/15 07:10:32;;;;;;;0.30;0.30;;;16.40;99.90;;;;;;5052283;28;20186;-69
2022/07/15 07:12:58;;;;;;;0.40;0.40;;;16.30;99.90;;;;;;5052812;28;20193;-72
2022/07/15 07:15:24;;;;;;;0.30;0.30;;;16.30;99.90;;;;;;5052315;28;20201;-69
2022/07/15 07:17:53;;;;;;;0.55;0.55;;;16.70;99.90;;;;;;5052700;28;20189;-68
2022/07/15 07:20:19;;;;;;;0.30;0.30;;;16.80;99.90;;;;;;5052367;28;20197;-70
2022/07/15 07:22:45;;;;;;;0.63;0.52;;;17.00;99.90;;;;;;5052554;28;20513;-70
2022/07/15 07:25:10;;;;;;;0.30;0.30;;;17.20;99.90;;;;;;5052350;28;20304;-69
2022/07/15 07:27:36;;;;;;;0.35;0.35;;;17.30;99.90;;;;;;5052141;28;20225;-70
2022/07/15 07:30:04;;;;;;;2.47;0.50;;;17.50;99.90;;;;;;5052401;28;20194;-69
2022/07/15 07:32:31;;;;;;;0.30;0.30;;;17.60;99.90;;;;;;5051991;28;20192;-69
2022/07/15 07:34:57;;;;;;;0.35;0.35;;;17.60;99.90;;;;;;5051910;28;20193;-69
2022/07/15 07:37:22;;;;;;;1.38;0.75;;;17.60;99.90;;;;;;5051824;28;20560;-70
2022/07/15 07:39:49;;;;;;;0.30;0.30;;;17.60;99.90;;;;;;5051817;28;20553;-69
2022/07/15 07:42:16;;;;;;;0.40;0.40;;;17.20;99.90;;;;;;5052035;28;20223;-69
2022/07/15 07:44:42;;;;;;;0.50;0.50;;;17.10;99.90;;;;;;5051448;28;20292;-69
2022/07/15 07:47:08;;;;;;;0.35;0.35;;;17.30;99.90;;;;;;5052379;28;20209;-69
2022/07/15 07:49:34;;;;;;;0.30;0.30;;;17.30;99.90;;;;;;5051826;28;20251;-70
2022/07/15 07:52:00;;;;;;;0.30;0.30;;;17.00;99.90;;;;;;5051934;28;20202;-71
2022/07/15 07:54:25;;;;;;;10.25;0.65;;;16.90;99.90;;;;;;5033732;28;20607;-69
2022/07/15 07:56:51;;;;;;;0.30;0.30;;;17.20;99.90;;;;;;5052045;28;20204;-70
2022/07/15 07:59:17;;;;;;;0.30;0.30;;;17.30;99.90;;;;;;5051623;28;20589;-70
2022/07/15 08:01:43;;;;;;;0.30;0.30;;;17.50;99.90;;;;;;5051486;28;20243;-71
2022/07/15 08:04:10;;;;;;;2.55;0.98;;;17.40;99.90;;;;;;5052064;28;20288;-71
2022/07/15 08:06:38;;;;;;;0.30;0.30;;;17.50;99.90;;;;;;5030266;28;20221;-71
2022/07/15 08:09:04;;;;;;;0.20;0.20;;;17.90;99.90;;;;;;5031799;28;20557;-71
2022/07/15 08:11:30;;;;;;;0.35;0.35;;;18.10;99.90;;;;;;5031701;28;20194;-71
2022/07/15 08:13:56;;;;;;;0.20;0.20;;;18.30;99.90;;;;;;5031491;28;20190;-69
2022/07/15 08:16:22;;;;;;;0.20;0.20;;;18.70;99.90;;;;;;5031755;28;20189;-70
2022/07/15 08:18:48;;;;;;;0.20;0.20;;;19.10;99.90;;;;;;5013757;28;20182;-71
2022/07/15 08:21:14;;;;;;;0.20;0.20;;;19.20;99.90;;;;;;5031613;28;20193;-71
2022/07/15 08:23:40;;;;;;;1.25;0.50;;;19.20;99.90;;;;;;5033494;28;20649;-71
2022/07/15 08:26:07;;;;;;;0.43;0.40;;;19.40;99.90;;;;;;5031250;28;20200;-72
2022/07/15 08:28:33;;;;;;;0.40;0.40;;;19.30;99.90;;;;;;5031628;28;20210;-71
2022/07/15 08:30:59;;;;;;;0.25;0.25;;;19.00;99.90;;;;;;5031602;28;20194;-73
2022/07/15 08:33:25;;;;;;;0.47;0.32;;;19.30;99.90;;;;;;5037272;28;20284;-72
2022/07/15 08:35:51;;;;;;;0.20;0.20;;;18.90;99.90;;;;;;5046826;28;20719;-70
2022/07/15 08:38:16;;;;;;;0.30;0.30;;;19.00;99.70;;;;;;5031499;28;20277;-72
2022/07/15 08:40:43;;;;;;;0.40;0.40;;;18.90;99.90;;;;;;5031525;28;20204;-70
2022/07/15 08:43:10;;;;;;;0.20;0.20;;;19.00;99.90;;;;;;5032019;28;20194;-71
2022/07/15 08:45:38;;;;;;;0.20;0.20;;;18.50;98.80;;;;;;5031827;28;20190;-72
2022/07/15 08:48:08;;;;;;;0.35;0.35;;;17.90;98.50;;;;;;5032118;28;20206;-72
2022/07/15 08:50:35;;;;;;;0.40;0.40;;;17.50;99.90;;;;;;5031805;28;20190;-70
2022/07/15 08:53:01;;;;;;;0.30;0.30;;;17.50;99.90;;;;;;5031467;28;20649;-69
2022/07/15 08:55:29;;;;;;;0.30;0.30;;;18.10;99.90;;;;;;5031495;28;20194;-70
2022/07/15 08:57:54;;;;;;;0.43;0.43;;;18.70;99.90;;;;;;5032667;28;20241;-71
2022/07/15 09:00:23;;;;;;;0.30;0.30;;;19.00;99.20;;;;;;5051185;28;20251;-71
2022/07/15 09:02:49;;;;;;;0.28;0.28;;;18.90;99.90;;;;;;5051682;28;20469;-71
2022/07/15 09:05:17;;;;;;;0.20;0.20;;;19.20;98.30;;;;;;5050964;28;20284;-70
2022/07/15 09:07:53;;;;;;;0.22;0.22;;;19.60;99.90;;;;;;5033166;28;20574;-71
2022/07/15 09:10:26;;;;;;;0.20;0.20;;;19.90;97.50;;;;;;5050958;28;20617;-70
2022/07/15 09:12:53;;;;;;;0.20;0.20;;;19.50;96.00;;;;;;5033445;28;20205;-70
2022/07/15 09:15:33;;;;;;;0.20;0.20;;;19.40;96.10;;;;;;5050933;28;20198;-70
2022/07/15 09:18:08;;;;;;;0.20;0.20;;;19.40;98.00;;;;;;5039559;28;20645;-71
2022/07/15 09:20:35;;;;;;;0.20;0.20;;;19.70;98.30;;;;;;5030629;28;20190;-71
2022/07/15 09:23:01;;;;;;;0.20;0.20;;;20.40;97.60;;;;;;5030783;28;20249;-69
2022/07/15 09:25:28;;;;;;;0.20;0.20;;;21.00;95.70;;;;;;5039925;28;20684;-70
2022/07/15 09:27:54;;;;;;;0.45;0.45;;;20.80;94.80;;;;;;5050656;28;20577;-70
2022/07/15 09:33:39;;;;;;;0.20;0.20;;;20.50;92.10;;;;;;5073334;28;20227;-70
2022/07/15 09:36:08;;;;;;;0.20;0.20;;;20.20;94.00;;;;;;5054629;28;20196;-70
2022/07/15 09:38:41;;;;;;;0.20;0.20;;;20.70;95.30;;;;;;5054215;28;20645;-70
2022/07/15 09:41:09;;;;;;;0.20;0.20;;;21.30;92.40;;;;;;5053431;28;20591;-71
2022/07/15 09:43:53;;;;;;;0.38;0.38;;;21.10;92.90;;;;;;5054819;28;20678;-71
2022/07/15 09:46:20;;;;;;;0.20;0.20;;;20.70;92.00;;;;;;5054392;28;20185;-71
2022/07/15 09:48:47;;;;;;;0.20;0.20;;;20.00;93.50;;;;;;5054883;28;20193;-70
2022/07/15 09:51:14;;;;;;;0.20;0.20;;;19.20;94.10;;;;;;5054715;28;20193;-70
2022/07/15 09:53:40;;;;;;;0.30;0.30;;;18.60;97.10;;;;;;5054302;28;20205;-71
2022/07/15 09:56:09;;;;;;;0.20;0.20;;;19.20;95.10;;;;;;5066617;28;20193;-72
2022/07/15 09:58:40;;;;;;;0.20;0.20;;;20.10;95.70;;;;;;5072868;28;20572;-71
2022/07/15 10:01:10;;;;;;;0.25;0.25;;;20.90;93.70;;;;;;5074332;28;20228;-72
2022/07/15 10:03:37;;;;;;;0.52;0.40;;;21.40;92.00;;;;;;5074193;28;20193;-71
2022/07/15 10:06:03;;;;;;;0.20;0.20;;;21.60;92.30;;;;;;5074387;28;20276;-71
2022/07/15 10:08:33;;;;;;;0.20;0.20;;;21.70;90.90;;;;;;5074249;28;20902;-72
2022/07/15 10:10:59;;;;;;;2.92;0.40;;;22.20;92.60;;;;;;5074020;28;20192;-70
2022/07/15 10:13:49;;;;;;;0.20;0.20;;;21.90;90.90;;;;;;5074116;28;20655;-72
2022/07/15 10:16:35;;;;;;;0.20;0.20;;;20.60;91.60;;;;;;5074115;28;20644;-71
2022/07/15 10:19:30;;;;;;;0.20;0.20;;;21.20;90.90;;;;;;5073908;28;20205;-71
2022/07/15 10:22:18;;;;;;;7.72;0.40;;;21.90;89.00;;;;;;5074007;28;20280;-71
2022/07/15 10:24:56;;;;;;;0.30;0.30;;;21.60;85.80;;;;;;5064568;28;20274;-71
2022/07/15 10:27:36;;;;;;;0.20;0.20;;;21.20;89.80;;;;;;5053906;28;20201;-71
2022/07/15 10:30:07;;;;;;;0.20;0.20;;;21.40;90.70;;;;;;5053712;28;20202;-72
2022/07/15 10:33:03;;;;;;;0.20;0.20;;;21.70;91.20;;;;;;5035926;28;20196;-72
2022/07/15 10:35:42;;;;;;;0.20;0.20;;;22.10;89.90;;;;;;5033253;28;20202;-70
2022/07/15 10:38:25;;;;;;;0.20;0.20;;;22.50;86.80;;;;;;5033380;28;20186;-71
2022/07/15 10:41:14;;;;;;;0.20;0.20;;;22.80;89.30;;;;;;5033406;28;20665;-71
2022/07/15 10:43:52;;;;;;;0.20;0.20;;;22.50;81.00;;;;;;5032967;28;20269;-71
2022/07/15 10:46:20;;;;;;;0.75;0.30;;;22.50;79.10;;;;;;5015022;28;20236;-70
2022/07/15 10:48:50;;;;;;;0.20;0.20;;;21.90;83.30;;;;;;5033583;28;20281;-70
2022/07/15 10:51:36;;;;;;;0.20;0.20;;;22.30;83.00;;;;;;5041183;28;20594;-70
2022/07/15 10:54:31;;;;;;;0.30;0.30;;;21.30;84.80;;;;;;5039255;28;20239;-70
2022/07/15 10:56:57;;;;;;;0.20;0.20;;;20.60;88.60;;;;;;5035994;28;20292;-71
2022/07/15 10:59:24;;;;;;;0.20;0.20;;;20.10;88.60;;;;;;5034416;28;20288;-70
2022/07/15 11:02:12;;;;;;;0.30;0.30;;;19.90;90.80;;;;;;5053069;28;20597;-71
2022/07/15 11:04:38;;;;;;;0.20;0.20;;;19.90;88.60;;;;;;5052764;28;20611;-69
2022/07/15 11:07:07;;;;;;;0.30;0.30;;;19.60;91.10;;;;;;5036254;28;20681;-70
2022/07/15 11:10:12;;;;;;;0.30;0.30;;;19.50;88.90;;;;;;5032884;28;20278;-69
2022/07/15 11:12:50;;;;;;;0.30;0.30;;;19.10;89.40;;;;;;5032029;28;20202;-69
2022/07/15 11:15:18;;;;;;;0.20;0.20;;;18.60;90.00;;;;;;5032816;28;20244;-69
2022/07/15 11:17:49;;;;;;;0.30;0.30;;;18.40;90.60;;;;;;5032951;28;20194;-70
2022/07/15 11:20:28;;;;;;;0.20;0.20;;;18.90;92.80;;;;;;5032755;28;20277;-70
2022/07/15 11:22:56;;;;;;;0.20;0.20;;;20.20;90.60;;;;;;5015197;28;20606;-70
2022/07/15 11:25:34;;;;;;;0.20;0.20;;;21.20;90.80;;;;;;5042698;28;20225;-70
2022/07/15 11:28:12;;;;;;;0.20;0.20;;;22.10;86.80;;;;;;5034420;28;20213;-70
2022/07/15 11:30:53;;;;;;;0.20;0.20;;;22.20;83.50;;;;;;5037969;28;20291;-69
2022/07/15 11:33:21;;;;;;;0.20;0.20;;;22.50;83.80;;;;;;5014753;28;20679;-69
2022/07/15 11:35:53;;;;;;;0.30;0.30;;;22.40;84.40;;;;;;5032329;28;20683;-69
2022/07/15 11:38:23;;;;;;;0.20;0.20;;;22.20;84.70;;;;;;5031759;28;20206;-70
2022/07/15 11:46:24;;;;;;;0.32;0.32;;;20.40;87.50;;;;;;5032343;28;20734;-70
2022/07/15 11:48:51;;;;;;;0.20;0.20;;;20.00;87.30;;;;;;5046661;28;20209;-69
2022/07/15 11:51:24;;;;;;;0.20;0.20;;;19.70;88.70;;;;;;5051447;28;20277;-70
2022/07/15 11:53:50;;;;;;;0.20;0.20;;;19.50;88.90;;;;;;5051216;28;20684;-70
2022/07/15 11:56:16;;;;;;;0.20;0.20;;;19.20;89.10;;;;;;5052076;28;20216;-69
2022/07/15 11:58:45;;;;;;;0.20;0.20;;;19.00;88.40;;;;;;5034139;28;20757;-68
2022/07/15 12:01:10;;;;;;;0.20;0.20;;;18.90;88.80;;;;;;5051823;28;20201;-67
2022/07/15 12:03:45;;;;;;;0.17;0.17;;;18.90;90.40;;;;;;5034025;28;20208;-68
2022/07/15 12:06:22;;;;;;;0.20;0.20;;;19.20;90.20;;;;;;5051867;28;20212;-68
2022/07/15 12:08:52;;;;;;;0.30;0.30;;;19.20;90.30;;;;;;5051820;28;20228;-69
2022/07/15 12:11:22;;;;;;;0.20;0.20;;;19.30;89.10;;;;;;5051979;28;20282;-68
2022/07/15 12:14:09;;;;;;;0.20;0.20;;;19.20;89.10;;;;;;5051789;28;20573;-68
2022/07/15 12:16:39;;;;;;;0.20;0.20;;;19.00;90.00;;;;;;5033749;28;20318;-68
2022/07/15 12:19:07;;;;;;;0.30;0.30;;;18.90;90.90;;;;;;5051685;28;20247;-68
2022/07/15 12:21:33;;;;;;;0.20;0.20;;;18.90;91.30;;;;;;5023323;28;20229;-68
2022/07/15 12:24:09;;;;;;;0.30;0.30;;;18.90;90.20;;;;;;5031734;28;20218;-68
2022/07/15 12:26:41;;;;;;;0.20;0.20;;;19.00;90.40;;;;;;5043320;28;20299;-68
2022/07/15 12:29:09;;;;;;;0.20;0.20;;;19.20;90.40;;;;;;5051914;28;20190;-68
2022/07/15 12:31:37;;;;;;;0.20;0.20;;;19.70;89.70;;;;;;5051643;28;20197;-68
2022/07/15 12:34:03;;;;;;;0.20;0.20;;;20.50;90.50;;;;;;5052212;28;20691;-69
2022/07/15 12:36:32;;;;;;;0.30;0.30;;;21.10;90.20;;;;;;5051619;28;20201;-69
2022/07/15 12:39:07;;;;;;;0.20;0.20;;;21.50;91.30;;;;;;5051713;28;20710;-68
2022/07/15 12:41:34;;;;;;;0.75;0.30;;;21.50;85.10;;;;;;5051553;28;20189;-68
2022/07/15 12:44:02;;;;;;;0.20;0.20;;;21.60;88.00;;;;;;5033994;28;20540;-69
2022/07/15 12:46:48;;;;;;;0.20;0.20;;;20.90;88.40;;;;;;5033481;28;20248;-69
2022/07/15 12:49:42;;;;;;;0.30;0.30;;;20.10;90.30;;;;;;5051461;28;20288;-69
2022/07/15 12:52:33;;;;;;;0.20;0.20;;;19.40;91.50;;;;;;5051278;28;20194;-68
2022/07/15 12:55:12;;;;;;;1.00;0.52;;;18.70;92.80;;;;;;5046021;28;20259;-68
2022/07/15 12:57:38;;;;;;;0.20;0.20;;;18.50;93.40;;;;;;5051618;28;20201;-68
2022/07/15 13:00:31;;;;;;;0.35;0.35;;;18.20;94.40;;;;;;5033364;28;20293;-68
2022/07/15 13:03:11;;;;;;;0.30;0.30;;;18.20;94.20;;;;;;5051102;28;20209;-68
2022/07/15 13:05:39;;;;;;;0.40;0.40;;;18.10;94.80;;;;;;5053745;28;20197;-68
2022/07/15 13:08:11;;;;;;;0.30;0.30;;;17.80;94.40;;;;;;5055059;28;20193;-69
2022/07/15 13:10:39;;;;;;;1.45;0.55;;;17.40;94.90;;;;;;5037246;28;20198;-68